Time;durP1;ratioP1;P1;durP2;ratioP2;P2;SDS_P1;SDS_P2;PMS_P1;PMS_P2;Temp;Humidity;BMP_temperature;BMP_pressure;BME280_temperature;BME280_humidity;BME280_pressure;Samples;Min_cycle;Max_cycle;Signal;HPM_P1;HPM_P2
2022/12/03 00:00:35;;;;;;;53.97;25.30;;;1.00;99.90;;;;;;5079886;28;20527;-59
2022/12/03 00:03:01;;;;;;;74.78;28.13;;;1.00;99.90;;;;;;5077485;28;20037;-58
2022/12/03 00:05:26;;;;;;;56.50;25.90;;;1.00;99.90;;;;;;5077650;28;20036;-58
2022/12/03 00:07:52;;;;;;;54.53;23.33;;;1.00;99.90;;;;;;5077034;28;20703;-58
2022/12/03 00:10:17;;;;;;;73.75;26.77;;;1.00;99.90;;;;;;5080018;28;20020;-59
2022/12/03 00:12:43;;;;;;;66.28;27.55;;;1.00;99.90;;;;;;5079773;28;20024;-58
2022/12/03 00:15:10;;;;;;;54.35;24.20;;;1.00;99.90;;;;;;5077168;28;20424;-60
2022/12/03 00:17:35;;;;;;;55.50;23.02;;;1.00;99.90;;;;;;5078269;28;20066;-59
2022/12/03 00:20:01;;;;;;;56.65;22.88;;;1.00;99.90;;;;;;5072185;28;20056;-60
2022/12/03 00:22:27;;;;;;;49.55;22.20;;;1.00;99.90;;;;;;5081024;28;20097;-59
2022/12/03 00:24:52;;;;;;;46.13;21.35;;;1.00;99.90;;;;;;5080641;28;20111;-59
2022/12/03 00:27:18;;;;;;;50.80;22.00;;;1.00;99.90;;;;;;5079038;28;20024;-59
2022/12/03 00:29:43;;;;;;;56.15;22.15;;;1.00;99.90;;;;;;5075890;28;20504;-58
2022/12/03 00:32:09;;;;;;;53.65;22.70;;;1.00;99.90;;;;;;5077389;28;20046;-58
2022/12/03 00:34:35;;;;;;;55.33;22.23;;;1.00;99.90;;;;;;5080486;28;20095;-61
2022/12/03 00:37:00;;;;;;;53.00;22.27;;;1.00;99.90;;;;;;5082153;28;20012;-58
2022/12/03 00:39:26;;;;;;;47.42;22.20;;;1.10;99.90;;;;;;5079925;28;20035;-59
2022/12/03 00:41:51;;;;;;;45.63;22.20;;;1.10;99.90;;;;;;5078315;28;20531;-59
2022/12/03 00:44:17;;;;;;;55.15;23.15;;;1.10;99.90;;;;;;5079236;28;20075;-59
2022/12/03 00:46:43;;;;;;;51.60;22.73;;;1.10;99.90;;;;;;5074644;28;20519;-59
2022/12/03 00:49:08;;;;;;;58.40;24.60;;;1.10;99.90;;;;;;5076332;28;20567;-59
2022/12/03 00:51:34;;;;;;;53.63;23.27;;;1.10;99.90;;;;;;5082636;28;20063;-58
2022/12/03 00:54:00;;;;;;;70.05;28.25;;;1.10;99.90;;;;;;5077520;28;20039;-59
2022/12/03 00:56:26;;;;;;;58.53;24.13;;;1.10;99.90;;;;;;5078804;28;20025;-59
2022/12/03 00:58:51;;;;;;;59.85;24.50;;;1.10;99.90;;;;;;5080571;28;20127;-59
2022/12/03 01:01:17;;;;;;;62.25;26.70;;;1.10;99.90;;;;;;5083312;28;20060;-59
2022/12/03 01:03:42;;;;;;;61.90;27.80;;;1.10;99.90;;;;;;5076044;28;20068;-58
2022/12/03 01:06:08;;;;;;;55.65;24.52;;;1.10;99.90;;;;;;5079580;28;20020;-58
2022/12/03 01:08:34;;;;;;;62.53;27.00;;;1.10;99.90;;;;;;5075180;28;20028;-57
2022/12/03 01:10:59;;;;;;;61.80;26.55;;;1.10;99.90;;;;;;5078312;28;20492;-58
2022/12/03 01:13:25;;;;;;;55.17;24.55;;;1.10;99.90;;;;;;5078885;28;20028;-57
2022/12/03 01:15:51;;;;;;;55.97;23.67;;;1.00;99.90;;;;;;5077693;28;20106;-59
2022/12/03 01:18:16;;;;;;;62.70;24.63;;;1.10;99.90;;;;;;5077087;28;20504;-59
2022/12/03 01:20:42;;;;;;;77.35;29.27;;;1.00;99.90;;;;;;5077095;28;20036;-58
2022/12/03 01:23:07;;;;;;;61.15;25.52;;;1.10;99.90;;;;;;5072495;28;20051;-58
2022/12/03 01:25:33;;;;;;;63.05;25.25;;;1.00;99.90;;;;;;5077695;28;20028;-58
2022/12/03 01:27:59;;;;;;;59.47;26.25;;;1.00;99.90;;;;;;5078985;28;20146;-57
2022/12/03 01:30:24;;;;;;;60.92;25.08;;;1.10;99.90;;;;;;5076213;28;20097;-59
2022/12/03 01:32:50;;;;;;;60.20;25.42;;;1.10;99.90;;;;;;5078714;28;20488;-58
2022/12/03 01:35:16;;;;;;;67.93;25.38;;;1.10;99.90;;;;;;5075268;28;20040;-59
2022/12/03 01:37:42;;;;;;;46.63;23.50;;;1.10;99.90;;;;;;5076393;28;20032;-59
2022/12/03 01:40:11;;;;;;;54.53;24.50;;;1.10;99.90;;;;;;5079538;28;20032;-58
2022/12/03 01:42:40;;;;;;;53.03;23.15;;;1.10;99.90;;;;;;5075947;28;20440;-61
2022/12/03 01:45:10;;;;;;;57.78;25.17;;;1.10;99.90;;;;;;5079154;28;20029;-59
2022/12/03 01:47:36;;;;;;;56.07;25.20;;;1.10;99.90;;;;;;5075319;28;20025;-58
2022/12/03 01:50:30;;;;;;;55.30;24.75;;;1.10;99.90;;;;;;5076393;28;20112;-58
2022/12/03 01:53:00;;;;;;;53.85;23.42;;;1.10;99.90;;;;;;5093784;28;20149;-59
2022/12/03 01:55:26;;;;;;;60.38;26.20;;;1.10;99.90;;;;;;5077938;28;20042;-58
2022/12/03 01:57:59;;;;;;;51.97;23.98;;;1.10;99.90;;;;;;5078006;28;20691;-58
2022/12/03 02:00:26;;;;;;;55.13;24.33;;;1.10;99.90;;;;;;5077560;28;20016;-60
2022/12/03 02:02:55;;;;;;;59.00;25.33;;;1.10;99.90;;;;;;5076341;28;20187;-57
2022/12/03 02:05:27;;;;;;;49.50;23.90;;;1.10;99.90;;;;;;5077559;28;20025;-59
2022/12/03 02:07:54;;;;;;;62.05;27.25;;;1.10;99.90;;;;;;5076934;28;20028;-59
2022/12/03 02:10:25;;;;;;;58.90;25.98;;;1.10;99.90;;;;;;5076254;28;20510;-60
2022/12/03 02:12:55;;;;;;;59.65;25.70;;;1.10;99.90;;;;;;5077641;28;20028;-59
2022/12/03 02:15:21;;;;;;;58.85;25.25;;;1.10;99.90;;;;;;5078690;28;20392;-60
2022/12/03 02:17:46;;;;;;;51.38;23.00;;;1.10;99.90;;;;;;5078777;28;20032;-58
2022/12/03 02:20:13;;;;;;;45.45;21.98;;;1.10;99.90;;;;;;5077287;28;20086;-59
2022/12/03 02:23:00;;;;;;;49.30;21.65;;;1.10;99.90;;;;;;5077942;28;20036;-59
2022/12/03 02:25:32;;;;;;;51.83;22.50;;;1.10;99.90;;;;;;5075433;28;20071;-58
2022/12/03 02:27:59;;;;;;;53.10;23.50;;;1.10;99.90;;;;;;5075709;28;20427;-58
2022/12/03 02:30:26;;;;;;;52.50;22.42;;;1.10;99.90;;;;;;5080160;28;20127;-59
2022/12/03 02:32:54;;;;;;;120.38;40.40;;;1.10;99.90;;;;;;5081697;28;20555;-57
2022/12/03 02:35:22;;;;;;;134.20;43.03;;;1.20;99.90;;;;;;5082389;28;20080;-59
2022/12/03 02:37:51;;;;;;;76.53;30.40;;;1.20;99.90;;;;;;5081180;28;20024;-58
2022/12/03 02:40:21;;;;;;;72.47;27.75;;;1.10;99.90;;;;;;5079683;28;20016;-59
2022/12/03 02:42:49;;;;;;;92.97;32.13;;;1.10;99.90;;;;;;5080642;28;20070;-58
2022/12/03 02:45:19;;;;;;;127.65;43.92;;;1.10;99.90;;;;;;5080052;28;20036;-60
2022/12/03 02:47:53;;;;;;;112.97;38.95;;;1.20;99.90;;;;;;5080785;28;20029;-58
2022/12/03 02:50:23;;;;;;;110.93;38.03;;;1.10;99.90;;;;;;5082407;28;20134;-58
2022/12/03 02:52:52;;;;;;;97.18;33.63;;;1.10;99.90;;;;;;5078431;28;20115;-58
2022/12/03 02:55:18;;;;;;;88.07;31.40;;;1.10;99.90;;;;;;5085674;28;20020;-59
2022/12/03 02:57:49;;;;;;;100.03;35.28;;;1.10;99.90;;;;;;5078361;28;20024;-59
2022/12/03 03:00:16;;;;;;;54.70;25.33;;;1.10;99.90;;;;;;5079171;28;20056;-60
2022/12/03 03:02:43;;;;;;;61.92;24.67;;;1.10;99.90;;;;;;5080967;28;20504;-59
2022/12/03 03:05:10;;;;;;;56.63;24.38;;;1.10;99.90;;;;;;5078406;28;20054;-58
2022/12/03 03:07:37;;;;;;;58.05;25.25;;;1.10;99.90;;;;;;5080349;28;20028;-59
2022/12/03 03:10:05;;;;;;;111.00;42.20;;;1.20;99.90;;;;;;5079616;28;20020;-59
2022/12/03 03:12:31;;;;;;;96.15;39.03;;;1.20;99.90;;;;;;5080449;28;20055;-58
2022/12/03 03:14:58;;;;;;;80.90;32.97;;;1.20;99.90;;;;;;5077313;28;20032;-58
2022/12/03 03:17:23;;;;;;;67.03;28.15;;;1.20;99.90;;;;;;5077334;28;20512;-58
2022/12/03 03:19:49;;;;;;;63.15;26.58;;;1.20;99.90;;;;;;5077375;28;20063;-58
2022/12/03 03:22:15;;;;;;;70.88;31.67;;;1.20;99.90;;;;;;5082752;28;20032;-60
2022/12/03 03:24:41;;;;;;;87.88;35.35;;;1.20;99.90;;;;;;5083028;28;20516;-58
2022/12/03 03:27:07;;;;;;;85.47;35.28;;;1.20;99.90;;;;;;5081073;28;20078;-59
2022/12/03 03:29:33;;;;;;;66.72;28.25;;;1.20;99.90;;;;;;5081898;28;20024;-61
2022/12/03 03:32:00;;;;;;;92.20;33.70;;;1.20;99.90;;;;;;5081290;28;20032;-59
2022/12/03 03:34:26;;;;;;;91.57;36.15;;;1.20;99.90;;;;;;5079545;28;20028;-58
2022/12/03 03:36:52;;;;;;;71.63;30.20;;;1.20;99.90;;;;;;5083068;28;20024;-57
2022/12/03 03:39:18;;;;;;;61.10;25.58;;;1.20;99.90;;;;;;5080048;28;20073;-57
2022/12/03 03:41:45;;;;;;;55.05;25.15;;;1.20;99.90;;;;;;5078502;28;21067;-59
2022/12/03 03:44:11;;;;;;;77.22;30.10;;;1.20;99.90;;;;;;5080080;28;20059;-58
2022/12/03 03:46:38;;;;;;;59.35;26.45;;;1.20;99.90;;;;;;5077460;28;20528;-59
2022/12/03 03:49:05;;;;;;;52.15;22.88;;;1.20;99.90;;;;;;5077895;28;20024;-59
2022/12/03 03:51:32;;;;;;;39.35;19.52;;;1.20;99.90;;;;;;5078572;28;20036;-58
2022/12/03 03:53:57;;;;;;;60.60;26.80;;;1.20;99.90;;;;;;5083514;28;20113;-59
2022/12/03 03:56:23;;;;;;;56.08;25.45;;;1.20;99.90;;;;;;5082527;28;20052;-59
2022/12/03 03:58:49;;;;;;;55.67;24.17;;;1.20;99.90;;;;;;5077396;28;20050;-59
2022/12/03 04:01:17;;;;;;;52.97;22.48;;;1.20;99.90;;;;;;5079967;28;20023;-59
2022/12/03 04:03:42;;;;;;;48.65;22.83;;;1.20;99.90;;;;;;5078969;28;20031;-58
2022/12/03 04:06:08;;;;;;;75.30;26.75;;;1.20;99.90;;;;;;5076142;28;20028;-58
2022/12/03 04:08:34;;;;;;;60.80;25.52;;;1.20;99.90;;;;;;5079979;28;20065;-59
2022/12/03 04:13:44;;;;;;;54.65;23.58;;;1.20;99.90;;;;;;5077388;28;20597;-59
2022/12/03 04:16:10;;;;;;;48.33;22.30;;;1.20;99.90;;;;;;5074474;28;20107;-59
2022/12/03 04:18:41;;;;;;;43.45;21.50;;;1.20;99.90;;;;;;5077963;28;20032;-58
2022/12/03 04:23:55;;;;;;;43.15;19.70;;;1.30;99.90;;;;;;5075795;28;20089;-59
2022/12/03 04:29:05;;;;;;;42.58;19.67;;;1.30;99.90;;;;;;5076719;28;20454;-58
2022/12/03 04:36:59;;;;;;;49.97;22.35;;;1.30;99.90;;;;;;5076003;28;20042;-58
2022/12/03 04:39:25;;;;;;;50.05;22.30;;;1.30;99.90;;;;;;5077787;28;20047;-58
2022/12/03 04:41:50;;;;;;;46.00;21.65;;;1.30;99.90;;;;;;5076519;28;20028;-58
2022/12/03 04:44:35;;;;;;;40.42;19.33;;;1.30;99.90;;;;;;5078366;28;20044;-58
2022/12/03 04:47:17;;;;;;;43.20;20.77;;;1.30;99.90;;;;;;5080136;28;20028;-58
2022/12/03 04:49:48;;;;;;;35.95;19.85;;;1.30;99.90;;;;;;5077775;28;20028;-58
2022/12/03 04:52:15;;;;;;;;;;;1.20;99.90;;;;;;5079681;28;20020;-57
2022/12/03 04:54:40;;;;;;;31.48;18.05;;;1.30;99.90;;;;;;5078102;28;20061;-58
2022/12/03 04:57:07;;;;;;;39.95;20.90;;;1.20;99.90;;;;;;5077661;28;20103;-58
2022/12/03 04:59:33;;;;;;;33.22;18.13;;;1.30;99.90;;;;;;5076986;28;20020;-58
2022/12/03 05:01:59;;;;;;;35.17;17.70;;;1.20;99.90;;;;;;5080217;28;20037;-58
2022/12/03 05:04:25;;;;;;;36.45;18.33;;;1.20;99.90;;;;;;5080165;28;20024;-60
2022/12/03 05:06:51;;;;;;;36.22;20.48;;;1.20;99.90;;;;;;5078544;28;20024;-58
2022/12/03 05:09:17;;;;;;;37.92;20.17;;;1.30;99.90;;;;;;5075966;28;20024;-59
2022/12/03 05:11:42;;;;;;;41.05;20.58;;;1.20;99.90;;;;;;5092274;28;20024;-58
2022/12/03 05:14:09;;;;;;;36.72;19.88;;;1.20;99.90;;;;;;5058420;28;20391;-58
2022/12/03 05:16:36;;;;;;;39.13;20.75;;;1.20;99.90;;;;;;5077817;28;20020;-59
2022/12/03 05:19:02;;;;;;;39.70;19.92;;;1.30;99.90;;;;;;5076587;28;20143;-59
2022/12/03 05:21:28;;;;;;;37.13;20.92;;;1.30;99.90;;;;;;5073810;28;20024;-59
2022/12/03 05:23:54;;;;;;;31.73;19.13;;;1.30;99.90;;;;;;5079201;28;20036;-59
2022/12/03 05:26:20;;;;;;;38.00;20.27;;;1.30;99.90;;;;;;5077340;28;20115;-59
2022/12/03 05:28:45;;;;;;;35.88;18.30;;;1.30;99.90;;;;;;5077262;28;20032;-59
2022/12/03 05:31:11;;;;;;;31.85;18.38;;;1.30;99.90;;;;;;5079850;28;20099;-58
2022/12/03 05:33:37;;;;;;;31.65;18.48;;;1.30;99.90;;;;;;5073694;28;20025;-59
2022/12/03 05:36:03;;;;;;;33.35;17.75;;;1.30;99.90;;;;;;5078145;28;20403;-58
2022/12/03 05:38:28;;;;;;;30.10;17.58;;;1.30;99.90;;;;;;5074415;28;20411;-57
2022/12/03 05:40:54;;;;;;;31.20;18.35;;;1.30;99.90;;;;;;5078711;28;20056;-58
2022/12/03 05:43:19;;;;;;;33.42;18.20;;;1.30;99.90;;;;;;5079627;28;20055;-59
2022/12/03 05:45:45;;;;;;;34.83;17.85;;;1.30;99.90;;;;;;5079651;28;20799;-59
2022/12/03 05:48:14;;;;;;;32.88;18.42;;;1.30;99.90;;;;;;5074753;28;20016;-60
2022/12/03 05:50:44;;;;;;;34.60;18.20;;;1.30;99.90;;;;;;5077698;28;20044;-58
2022/12/03 05:53:11;;;;;;;32.60;17.73;;;1.20;99.90;;;;;;5072868;28;20031;-58
2022/12/03 05:55:36;;;;;;;32.83;17.75;;;1.20;99.90;;;;;;5075239;28;20051;-58
2022/12/03 05:58:03;;;;;;;37.45;20.35;;;1.20;99.90;;;;;;5077193;28;20024;-59
2022/12/03 06:00:31;;;;;;;32.42;17.95;;;1.20;99.90;;;;;;5079068;28;20074;-59
2022/12/03 06:02:57;;;;;;;29.33;17.17;;;1.20;99.90;;;;;;5075920;28;20084;-60
2022/12/03 06:05:23;;;;;;;32.90;18.73;;;1.20;99.90;;;;;;5079588;28;20054;-59
2022/12/03 06:07:51;;;;;;;29.20;17.52;;;1.20;99.90;;;;;;5082946;28;20036;-57
2022/12/03 06:10:21;;;;;;;35.22;18.65;;;1.20;99.90;;;;;;5095048;28;20040;-59
2022/12/03 06:12:46;;;;;;;35.63;17.40;;;1.20;99.90;;;;;;5082970;28;20025;-59
2022/12/03 06:15:13;;;;;;;37.50;18.60;;;1.20;99.90;;;;;;5074977;28;20147;-59
2022/12/03 06:17:39;;;;;;;32.03;16.58;;;1.20;99.90;;;;;;5078203;28;20032;-60
2022/12/03 06:20:05;;;;;;;32.67;17.45;;;1.20;99.90;;;;;;5078922;28;20143;-60
2022/12/03 06:22:31;;;;;;;33.85;17.73;;;1.20;99.90;;;;;;5077748;28;20058;-58
2022/12/03 06:24:57;;;;;;;31.17;17.27;;;1.20;99.90;;;;;;5086192;28;20047;-58
2022/12/03 06:27:23;;;;;;;36.10;18.20;;;1.20;99.90;;;;;;5078889;28;20028;-58
2022/12/03 06:29:48;;;;;;;31.58;18.50;;;1.20;99.90;;;;;;5081409;28;20375;-58
2022/12/03 06:32:14;;;;;;;32.35;16.75;;;1.30;99.90;;;;;;5079932;28;20023;-58
2022/12/03 06:34:39;;;;;;;30.33;17.98;;;1.20;99.90;;;;;;5080467;28;20025;-58
2022/12/03 06:37:05;;;;;;;36.67;17.70;;;1.20;99.90;;;;;;5083367;28;20099;-57
2022/12/03 06:39:31;;;;;;;33.50;18.02;;;1.20;99.90;;;;;;5080440;28;20024;-58
2022/12/03 06:41:56;;;;;;;36.53;18.45;;;1.20;99.90;;;;;;5081842;28;20048;-58
2022/12/03 06:44:22;;;;;;;32.58;17.55;;;1.30;99.90;;;;;;5078617;28;20082;-59
2022/12/03 06:46:48;;;;;;;33.10;18.70;;;1.30;99.90;;;;;;5076670;28;20036;-60
2022/12/03 06:49:13;;;;;;;34.83;19.30;;;1.30;99.90;;;;;;5079567;28;20054;-59
2022/12/03 06:51:39;;;;;;;31.85;17.33;;;1.30;99.90;;;;;;5078488;28;20032;-59
2022/12/03 06:54:05;;;;;;;36.25;17.65;;;1.30;99.90;;;;;;5082249;28;20507;-59
2022/12/03 06:56:31;;;;;;;31.00;17.85;;;1.30;99.90;;;;;;5080942;28;20016;-57
2022/12/03 06:58:57;;;;;;;32.17;17.13;;;1.30;99.90;;;;;;5077440;28;20358;-58
2022/12/03 07:01:22;;;;;;;30.65;17.95;;;1.30;99.90;;;;;;5080304;28;20027;-59
2022/12/03 07:03:48;;;;;;;30.17;17.70;;;1.40;99.90;;;;;;5079666;28;20020;-58
2022/12/03 07:06:14;;;;;;;29.15;17.90;;;1.40;99.90;;;;;;5077263;28;20718;-58
2022/12/03 07:08:40;;;;;;;28.85;17.50;;;1.40;99.90;;;;;;5082667;28;20052;-58
2022/12/03 07:11:29;;;;;;;32.15;18.10;;;1.40;99.90;;;;;;5084559;28;20565;-59
2022/12/03 07:13:55;;;;;;;33.95;18.30;;;1.40;99.90;;;;;;5080421;28;20028;-58
2022/12/03 07:16:20;;;;;;;30.33;17.00;;;1.40;99.90;;;;;;5082175;28;20116;-59
2022/12/03 07:18:46;;;;;;;34.67;19.23;;;1.40;99.90;;;;;;5080839;28;20087;-58
2022/12/03 07:21:12;;;;;;;30.67;16.20;;;1.40;99.90;;;;;;5080314;28;20047;-60
2022/12/03 07:23:37;;;;;;;33.38;19.00;;;1.40;99.90;;;;;;5079407;28;20500;-59
2022/12/03 07:26:03;;;;;;;34.67;18.60;;;1.40;99.90;;;;;;5078873;28;20373;-58
2022/12/03 07:28:28;;;;;;;33.08;18.55;;;1.50;99.90;;;;;;5078928;28;20133;-58
2022/12/03 07:30:54;;;;;;;31.88;18.35;;;1.50;99.90;;;;;;5081172;28;20098;-59
2022/12/03 07:33:20;;;;;;;33.38;18.98;;;1.50;99.90;;;;;;5077231;28;20027;-59
2022/12/03 07:35:45;;;;;;;32.22;17.98;;;1.50;99.90;;;;;;5075703;28;20025;-58
2022/12/03 07:38:11;;;;;;;37.40;19.98;;;1.50;99.90;;;;;;5077728;28;20032;-57
2022/12/03 07:40:36;;;;;;;41.65;22.05;;;1.60;99.90;;;;;;5078235;28;20524;-58
2022/12/03 07:43:02;;;;;;;41.33;21.77;;;1.60;99.90;;;;;;5078842;28;20032;-58
2022/12/03 07:45:28;;;;;;;40.03;20.73;;;1.60;99.90;;;;;;5076837;28;20025;-59
2022/12/03 07:47:54;;;;;;;39.92;20.73;;;1.60;99.90;;;;;;5080886;28;20077;-57
2022/12/03 07:50:19;;;;;;;37.15;19.70;;;1.60;99.90;;;;;;5083462;28;20035;-58
2022/12/03 07:52:45;;;;;;;38.45;17.77;;;1.60;99.90;;;;;;5077981;28;20028;-59
2022/12/03 07:55:12;;;;;;;34.33;17.70;;;1.60;99.90;;;;;;5081673;28;20399;-58
2022/12/03 07:57:38;;;;;;;30.30;17.73;;;1.60;99.90;;;;;;5076199;28;20024;-58
2022/12/03 08:00:05;;;;;;;27.83;15.70;;;1.70;99.90;;;;;;5076685;28;20024;-60
2022/12/03 08:02:30;;;;;;;25.40;16.17;;;1.60;99.90;;;;;;5072308;28;20036;-59
2022/12/03 08:04:56;;;;;;;24.92;16.67;;;1.70;99.90;;;;;;5083328;28;20054;-57
2022/12/03 08:07:22;;;;;;;28.42;16.35;;;1.70;99.90;;;;;;5079287;28;20024;-57
2022/12/03 08:09:48;;;;;;;29.35;16.67;;;1.70;99.90;;;;;;5078823;28;20028;-59
2022/12/03 08:12:16;;;;;;;32.70;17.02;;;1.70;99.90;;;;;;5078847;28;20025;-57
2022/12/03 08:14:43;;;;;;;35.35;19.38;;;1.80;99.90;;;;;;5076285;28;20075;-58
2022/12/03 08:17:13;;;;;;;23.40;16.75;;;1.80;99.90;;;;;;5076946;28;20106;-58
2022/12/03 08:19:44;;;;;;;29.97;16.70;;;1.80;99.90;;;;;;5075426;28;20029;-57
2022/12/03 08:22:14;;;;;;;38.67;21.38;;;1.80;99.90;;;;;;5075474;28;20477;-58
2022/12/03 08:24:41;;;;;;;32.70;18.83;;;1.80;99.90;;;;;;5077100;28;20909;-58
2022/12/03 08:27:18;;;;;;;26.27;17.83;;;1.80;99.90;;;;;;5075401;28;20097;-58
2022/12/03 08:29:44;;;;;;;30.08;16.17;;;1.90;99.90;;;;;;5078599;28;20563;-58
2022/12/03 08:32:11;;;;;;;27.23;16.70;;;1.90;99.90;;;;;;5077557;28;20032;-59
2022/12/03 08:34:43;;;;;;;31.95;17.38;;;1.90;99.90;;;;;;5078435;28;20107;-59
2022/12/03 08:37:18;;;;;;;32.03;18.02;;;1.90;99.90;;;;;;5079881;28;20123;-58
2022/12/03 08:39:54;;;;;;;27.60;16.42;;;2.00;99.90;;;;;;5071288;28;20393;-58
2022/12/03 08:42:43;;;;;;;28.40;17.15;;;2.00;99.90;;;;;;5074438;28;20051;-59
2022/12/03 08:45:38;;;;;;;28.73;16.08;;;2.10;99.90;;;;;;5076622;28;20143;-59
2022/12/03 08:48:26;;;;;;;31.55;16.90;;;2.10;99.90;;;;;;5074730;28;20025;-59
2022/12/03 08:50:57;;;;;;;29.27;15.75;;;2.10;99.90;;;;;;5072457;28;20032;-58
2022/12/03 08:53:41;;;;;;;28.80;16.00;;;2.10;99.90;;;;;;5079148;28;20032;-58
2022/12/03 08:56:23;;;;;;;33.55;18.42;;;2.20;99.90;;;;;;5080536;28;20017;-58
2022/12/03 08:58:55;;;;;;;25.45;15.13;;;2.20;99.90;;;;;;5077432;28;20085;-58
2022/12/03 09:01:23;;;;;;;29.10;15.43;;;2.20;99.90;;;;;;5075574;28;20121;-58
2022/12/03 09:03:53;;;;;;;26.98;16.55;;;2.20;99.90;;;;;;5076576;28;20036;-59
2022/12/03 09:06:20;;;;;;;28.02;15.25;;;2.20;99.90;;;;;;5078915;28;20035;-58
2022/12/03 09:08:46;;;;;;;22.92;16.52;;;2.10;99.90;;;;;;5074627;28;20155;-61
2022/12/03 09:11:12;;;;;;;27.25;15.10;;;2.20;99.90;;;;;;5078706;28;20038;-58
2022/12/03 09:13:38;;;;;;;30.92;15.65;;;2.20;99.90;;;;;;5078863;28;20028;-59
2022/12/03 09:16:04;;;;;;;32.33;17.20;;;2.20;99.90;;;;;;5074866;28;20031;-58
2022/12/03 09:18:29;;;;;;;26.95;15.65;;;2.20;99.90;;;;;;5077057;28;20115;-58
2022/12/03 09:20:55;;;;;;;25.40;15.45;;;2.20;99.90;;;;;;5073578;28;20488;-59
2022/12/03 09:23:22;;;;;;;25.85;14.95;;;2.20;99.90;;;;;;5079086;28;20029;-59
2022/12/03 09:25:47;;;;;;;22.75;14.23;;;2.20;99.90;;;;;;5074799;28;20073;-59
2022/12/03 09:28:13;;;;;;;31.05;16.92;;;2.20;99.90;;;;;;5081524;28;20039;-60
2022/12/03 09:30:38;;;;;;;27.40;15.77;;;2.20;99.90;;;;;;5077480;28;20554;-58
2022/12/03 09:33:04;;;;;;;29.92;16.08;;;2.20;99.90;;;;;;5079318;28;20064;-59
2022/12/03 09:35:30;;;;;;;29.10;15.93;;;2.20;99.90;;;;;;5079500;28;20055;-59
2022/12/03 09:37:55;;;;;;;27.50;14.88;;;2.20;99.90;;;;;;5075376;28;20036;-60
2022/12/03 09:40:21;;;;;;;22.08;14.10;;;2.20;99.90;;;;;;5080518;28;20085;-59
2022/12/03 09:42:48;;;;;;;28.27;15.98;;;2.20;99.90;;;;;;5085968;28;20036;-59
2022/12/03 09:45:15;;;;;;;24.98;13.50;;;2.20;99.90;;;;;;5084286;28;20167;-57
2022/12/03 09:47:45;;;;;;;22.27;13.77;;;2.20;99.90;;;;;;5083386;28;20031;-58
2022/12/03 09:50:14;;;;;;;17.05;11.10;;;2.20;99.90;;;;;;5077650;28;20598;-59
2022/12/03 09:52:40;;;;;;;26.42;15.38;;;2.20;99.90;;;;;;5080741;28;20035;-58
2022/12/03 09:55:21;;;;;;;21.60;14.25;;;2.20;99.90;;;;;;5082306;28;20672;-58
2022/12/03 09:57:47;;;;;;;19.60;14.82;;;2.20;99.90;;;;;;5081598;28;20044;-58
2022/12/03 10:00:22;;;;;;;20.00;14.45;;;2.30;99.90;;;;;;5084868;28;20101;-58
2022/12/03 10:02:50;;;;;;;19.83;12.73;;;2.30;99.90;;;;;;5079597;28;20062;-59
2022/12/03 10:05:19;;;;;;;15.55;12.18;;;2.30;99.90;;;;;;5079594;28;20047;-58
2022/12/03 10:07:44;;;;;;;19.63;13.07;;;2.30;99.90;;;;;;5079781;28;20033;-58
2022/12/03 10:10:16;;;;;;;18.30;12.18;;;2.30;99.90;;;;;;5081774;28;20022;-58
2022/12/03 10:12:42;;;;;;;18.65;13.13;;;2.30;99.90;;;;;;5082243;28;20031;-58
2022/12/03 10:15:13;;;;;;;20.48;12.75;;;2.30;99.90;;;;;;5083490;28;20070;-59
2022/12/03 10:17:39;;;;;;;21.60;13.25;;;2.40;99.90;;;;;;5085380;28;20024;-57
2022/12/03 10:20:06;;;;;;;16.40;12.40;;;2.40;99.90;;;;;;5082408;28;20040;-59
2022/12/03 10:22:36;;;;;;;17.73;12.90;;;2.40;99.90;;;;;;5083819;28;20024;-58
2022/12/03 10:25:14;;;;;;;18.58;13.30;;;2.50;99.90;;;;;;5079269;28;20480;-58
2022/12/03 10:27:41;;;;;;;21.63;13.38;;;2.50;99.90;;;;;;5081209;28;20227;-58
2022/12/03 10:30:25;;;;;;;17.08;12.30;;;2.60;99.90;;;;;;5079936;28;20020;-59
2022/12/03 10:32:50;;;;;;;16.05;11.68;;;2.60;99.90;;;;;;5081277;28;20029;-57
2022/12/03 10:35:16;;;;;;;17.60;12.07;;;2.70;99.90;;;;;;5081710;28;20032;-59
2022/12/03 10:38:05;;;;;;;6.45;5.05;;;2.70;99.90;;;;;;5079364;28;20070;-58
2022/12/03 10:40:36;;;;;;;16.25;13.02;;;2.70;99.90;;;;;;5078128;28;20029;-60
2022/12/03 10:43:17;;;;;;;29.42;19.70;;;2.80;99.90;;;;;;5077968;28;20028;-60
2022/12/03 10:45:48;;;;;;;24.58;15.82;;;2.80;99.90;;;;;;5083777;28;20021;-59
2022/12/03 10:48:24;;;;;;;20.17;15.20;;;2.90;99.90;;;;;;5086763;28;20036;-58
2022/12/03 10:50:52;;;;;;;19.05;14.55;;;2.80;99.90;;;;;;5080374;28;20389;-59
2022/12/03 10:53:21;;;;;;;16.73;13.80;;;2.90;99.90;;;;;;5081120;28;20078;-58
2022/12/03 10:55:50;;;;;;;17.15;12.38;;;2.90;99.90;;;;;;5078016;28;20559;-59
2022/12/03 10:58:27;;;;;;;13.93;10.93;;;2.90;99.90;;;;;;5083245;28;20026;-59
2022/12/03 11:00:55;;;;;;;12.60;10.63;;;2.80;99.90;;;;;;5081993;28;20488;-58
2022/12/03 11:03:29;;;;;;;13.00;10.45;;;2.80;99.90;;;;;;5084757;28;20052;-57
2022/12/03 11:05:56;;;;;;;12.63;10.98;;;2.80;99.90;;;;;;5080456;28;20070;-58
2022/12/03 11:08:28;;;;;;;12.68;10.15;;;2.70;99.90;;;;;;5077599;28;20038;-58
2022/12/03 11:11:27;;;;;;;14.95;11.70;;;2.80;99.90;;;;;;5081645;28;20039;-59
2022/12/03 11:13:58;;;;;;;11.90;10.70;;;2.80;99.90;;;;;;5053347;28;20040;-59
2022/12/03 11:16:50;;;;;;;15.60;12.43;;;2.90;99.90;;;;;;5079173;28;20436;-58
2022/12/03 11:19:17;;;;;;;14.90;11.73;;;2.90;99.90;;;;;;5064965;28;20039;-59
2022/12/03 11:22:02;;;;;;;15.55;11.48;;;2.80;99.90;;;;;;5076461;28;20036;-59
2022/12/03 11:24:28;;;;;;;12.93;10.30;;;2.80;99.90;;;;;;5078819;28;20180;-58
2022/12/03 11:26:53;;;;;;;13.88;11.30;;;2.80;99.90;;;;;;5077785;28;20024;-58
2022/12/03 11:29:58;;;;;;;16.90;11.48;;;2.80;99.90;;;;;;5079001;28;20020;-59
2022/12/03 11:32:42;;;;;;;16.05;11.73;;;2.80;99.90;;;;;;5076016;28;20561;-58
2022/12/03 11:35:27;;;;;;;13.45;12.05;;;2.80;99.90;;;;;;5078853;28;20028;-58
2022/12/03 11:37:52;;;;;;;15.63;11.10;;;2.70;99.90;;;;;;5080236;28;20043;-59
2022/12/03 11:40:18;;;;;;;11.93;10.48;;;2.80;99.90;;;;;;5077633;28;20024;-59
2022/12/03 11:42:46;;;;;;;13.10;10.40;;;2.70;99.90;;;;;;5077999;28;20028;-58
2022/12/03 11:45:14;;;;;;;11.40;10.02;;;2.70;99.90;;;;;;5078185;28;20641;-58
2022/12/03 11:47:41;;;;;;;15.02;10.05;;;2.70;99.90;;;;;;5075153;28;20400;-58
2022/12/03 11:50:21;;;;;;;14.52;10.57;;;2.70;99.90;;;;;;5076359;28;20021;-58
2022/12/03 11:52:52;;;;;;;15.35;10.88;;;2.70;99.90;;;;;;5078552;28;20051;-58
2022/12/03 11:55:39;;;;;;;14.88;11.30;;;2.70;99.90;;;;;;5076668;28;20031;-60
2022/12/03 11:58:27;;;;;;;14.88;10.48;;;2.60;99.90;;;;;;5080145;28;20044;-58
2022/12/03 12:00:56;;;;;;;17.52;11.88;;;2.60;99.90;;;;;;5081728;28;20047;-58
2022/12/03 12:03:33;;;;;;;17.05;10.82;;;2.60;99.90;;;;;;5080212;28;20527;-58
2022/12/03 12:06:16;;;;;;;16.25;11.80;;;2.60;99.90;;;;;;5077119;28;20090;-59
2022/12/03 12:09:08;;;;;;;17.25;12.32;;;2.60;99.90;;;;;;5077181;28;20055;-59
2022/12/03 12:11:38;;;;;;;23.73;13.00;;;2.60;99.90;;;;;;5077072;28;20028;-58
2022/12/03 12:14:05;;;;;;;20.08;13.13;;;2.60;99.90;;;;;;5080432;28;20028;-58
2022/12/03 12:16:44;;;;;;;17.80;12.57;;;2.60;99.90;;;;;;5081130;28;20166;-58
2022/12/03 12:19:33;;;;;;;16.20;11.05;;;2.60;99.90;;;;;;5076428;28;20036;-59
2022/12/03 12:22:25;;;;;;;16.17;11.90;;;2.60;99.90;;;;;;5076549;28;20032;-59
2022/12/03 12:24:56;;;;;;;15.52;11.68;;;2.60;99.90;;;;;;5070972;28;20052;-59
2022/12/03 12:27:34;;;;;;;15.52;12.60;;;2.60;99.90;;;;;;5076716;28;20107;-58
2022/12/03 12:30:20;;;;;;;18.27;13.55;;;2.60;99.90;;;;;;5073153;28;20036;-56
2022/12/03 12:32:52;;;;;;;16.67;12.30;;;2.60;99.90;;;;;;5077215;28;20082;-59
2022/12/03 12:35:23;;;;;;;17.58;13.15;;;2.60;99.90;;;;;;5081130;28;20036;-58
2022/12/03 12:37:52;;;;;;;13.07;11.48;;;2.60;99.90;;;;;;5078966;28;20029;-59
2022/12/03 12:40:21;;;;;;;16.33;11.63;;;2.60;99.90;;;;;;5081595;28;20491;-59
2022/12/03 12:42:56;;;;;;;14.00;11.35;;;2.60;99.90;;;;;;5072981;28;20025;-58
2022/12/03 12:45:27;;;;;;;16.08;11.73;;;2.60;99.90;;;;;;5079222;28;20069;-57
2022/12/03 12:48:17;;;;;;;18.25;11.18;;;2.60;99.90;;;;;;5074278;28;20115;-58
2022/12/03 12:50:47;;;;;;;14.32;10.82;;;2.60;99.90;;;;;;5076884;28;20085;-58
2022/12/03 12:53:25;;;;;;;15.32;12.07;;;2.60;99.90;;;;;;5077213;28;20047;-58
2022/12/03 12:55:55;;;;;;;23.13;15.35;;;2.60;99.90;;;;;;5077448;28;20032;-58
2022/12/03 12:58:21;;;;;;;28.80;17.95;;;2.60;99.90;;;;;;5077489;28;20115;-59
2022/12/03 13:00:52;;;;;;;35.03;22.55;;;2.50;99.90;;;;;;5077826;28;20024;-58